sensor_id;sensor_type;location;lat;lon;timestamp;temperature;humidity
22235;DHT22;11286;45.596;5.284;2022-07-29T00:00:28;24.70;1.00
22235;DHT22;11286;45.596;5.284;2022-07-29T00:02:54;24.70;1.00
22235;DHT22;11286;45.596;5.284;2022-07-29T00:05:20;24.70;1.00
22235;DHT22;11286;45.596;5.284;2022-07-29T00:07:45;24.70;1.00
22235;DHT22;11286;45.596;5.284;2022-07-29T00:10:11;24.60;1.00
22235;DHT22;11286;45.596;5.284;2022-07-29T00:12:36;24.60;1.00
22235;DHT22;11286;45.596;5.284;2022-07-29T00:15:03;24.60;1.00
22235;DHT22;11286;45.596;5.284;2022-07-29T00:17:29;24.50;1.00
22235;DHT22;11286;45.596;5.284;2022-07-29T00:19:55;24.40;1.00
22235;DHT22;11286;45.596;5.284;2022-07-29T00:22:20;24.30;1.00
22235;DHT22;11286;45.596;5.284;2022-07-29T00:24:49;24.40;1.00
22235;DHT22;11286;45.596;5.284;2022-07-29T00:27:15;24.40;1.00
22235;DHT22;11286;45.596;5.284;2022-07-29T00:29:40;24.30;1.00
22235;DHT22;11286;45.596;5.284;2022-07-29T00:32:06;24.20;1.00
22235;DHT22;11286;45.596;5.284;2022-07-29T00:34:32;24.20;1.00
22235;DHT22;11286;45.596;5.284;2022-07-29T00:37:16;24.10;1.00
22235;DHT22;11286;45.596;5.284;2022-07-29T00:39:42;24.10;1.00
22235;DHT22;11286;45.596;5.284;2022-07-29T00:42:08;24.20;1.00
22235;DHT22;11286;45.596;5.284;2022-07-29T00:44:41;24.20;1.00
22235;DHT22;11286;45.596;5.284;2022-07-29T00:47:09;24.10;1.00
22235;DHT22;11286;45.596;5.284;2022-07-29T00:49:35;24.00;1.00
22235;DHT22;11286;45.596;5.284;2022-07-29T00:52:02;24.00;1.00
22235;DHT22;11286;45.596;5.284;2022-07-29T00:54:28;23.90;1.00
22235;DHT22;11286;45.596;5.284;2022-07-29T00:56:56;23.80;1.00
22235;DHT22;11286;45.596;5.284;2022-07-29T00:59:23;23.60;1.00
22235;DHT22;11286;45.596;5.284;2022-07-29T01:01:49;23.40;1.00
22235;DHT22;11286;45.596;5.284;2022-07-29T01:04:14;23.40;1.00
22235;DHT22;11286;45.596;5.284;2022-07-29T01:06:41;23.30;1.00
22235;DHT22;11286;45.596;5.284;2022-07-29T01:09:07;23.30;1.00
22235;DHT22;11286;45.596;5.284;2022-07-29T01:11:34;23.10;1.00
22235;DHT22;11286;45.596;5.284;2022-07-29T01:14:01;23.20;1.00
22235;DHT22;11286;45.596;5.284;2022-07-29T01:16:31;23.20;1.00
22235;DHT22;11286;45.596;5.284;2022-07-29T01:21:54;23.40;1.00
22235;DHT22;11286;45.596;5.284;2022-07-29T01:24:39;23.30;1.00
22235;DHT22;11286;45.596;5.284;2022-07-29T01:30:24;23.20;1.00
22235;DHT22;11286;45.596;5.284;2022-07-29T01:32:55;22.90;1.00
22235;DHT22;11286;45.596;5.284;2022-07-29T01:35:28;22.70;1.00
22235;DHT22;11286;45.596;5.284;2022-07-29T01:38:10;22.50;1.00
22235;DHT22;11286;45.596;5.284;2022-07-29T01:41:28;22.40;1.00
22235;DHT22;11286;45.596;5.284;2022-07-29T01:43:39;22.40;1.00
22235;DHT22;11286;45.596;5.284;2022-07-29T01:46:13;22.40;1.00
22235;DHT22;11286;45.596;5.284;2022-07-29T01:48:48;22.50;1.00
22235;DHT22;11286;45.596;5.284;2022-07-29T01:51:25;22.60;1.00
22235;DHT22;11286;45.596;5.284;2022-07-29T01:54:04;22.50;1.00
22235;DHT22;11286;45.596;5.284;2022-07-29T01:56:32;22.60;1.00
22235;DHT22;11286;45.596;5.284;2022-07-29T01:58:59;22.50;1.00
22235;DHT22;11286;45.596;5.284;2022-07-29T02:01:27;22.40;1.00
22235;DHT22;11286;45.596;5.284;2022-07-29T02:03:56;22.50;1.00
22235;DHT22;11286;45.596;5.284;2022-07-29T02:06:23;22.70;1.00
22235;DHT22;11286;45.596;5.284;2022-07-29T02:08:51;22.70;1.00
22235;DHT22;11286;45.596;5.284;2022-07-29T02:11:18;22.70;1.00
22235;DHT22;11286;45.596;5.284;2022-07-29T02:13:44;22.70;1.00
22235;DHT22;11286;45.596;5.284;2022-07-29T02:16:10;22.50;1.00
22235;DHT22;11286;45.596;5.284;2022-07-29T02:18:40;22.40;1.00
22235;DHT22;11286;45.596;5.284;2022-07-29T02:21:07;22.30;1.00
22235;DHT22;11286;45.596;5.284;2022-07-29T02:23:35;22.30;1.00
22235;DHT22;11286;45.596;5.284;2022-07-29T02:26:02;22.10;1.00
22235;DHT22;11286;45.596;5.284;2022-07-29T02:28:29;22.10;1.00
22235;DHT22;11286;45.596;5.284;2022-07-29T02:30:58;22.00;1.00
22235;DHT22;11286;45.596;5.284;2022-07-29T02:33:25;22.10;1.00
22235;DHT22;11286;45.596;5.284;2022-07-29T02:35:52;22.10;1.00
22235;DHT22;11286;45.596;5.284;2022-07-29T02:38:18;22.20;1.00
22235;DHT22;11286;45.596;5.284;2022-07-29T02:41:24;22.10;1.00
22235;DHT22;11286;45.596;5.284;2022-07-29T02:43:55;22.00;1.00
22235;DHT22;11286;45.596;5.284;2022-07-29T02:46:27;22.00;1.00
22235;DHT22;11286;45.596;5.284;2022-07-29T02:49:23;21.90;1.00
22235;DHT22;11286;45.596;5.284;2022-07-29T02:52:18;21.90;1.00
22235;DHT22;11286;45.596;5.284;2022-07-29T02:57:21;21.80;1.00
22235;DHT22;11286;45.596;5.284;2022-07-29T02:59:51;21.80;1.00
22235;DHT22;11286;45.596;5.284;2022-07-29T03:02:18;21.80;1.00
22235;DHT22;11286;45.596;5.284;2022-07-29T03:04:44;21.90;1.00
22235;DHT22;11286;45.596;5.284;2022-07-29T03:07:13;22.00;1.00
22235;DHT22;11286;45.596;5.284;2022-07-29T03:09:40;21.90;1.00
22235;DHT22;11286;45.596;5.284;2022-07-29T03:12:07;21.80;1.00
22235;DHT22;11286;45.596;5.284;2022-07-29T03:14:33;21.90;1.00
22235;DHT22;11286;45.596;5.284;2022-07-29T03:17:00;21.90;1.00
22235;DHT22;11286;45.596;5.284;2022-07-29T03:19:26;21.80;1.00
22235;DHT22;11286;45.596;5.284;2022-07-29T03:21:52;21.70;1.00
22235;DHT22;11286;45.596;5.284;2022-07-29T03:24:32;21.70;1.00
22235;DHT22;11286;45.596;5.284;2022-07-29T03:26:59;21.60;1.00
22235;DHT22;11286;45.596;5.284;2022-07-29T03:29:25;21.70;1.00
22235;DHT22;11286;45.596;5.284;2022-07-29T03:31:52;21.40;1.00
22235;DHT22;11286;45.596;5.284;2022-07-29T03:34:17;21.40;1.00
22235;DHT22;11286;45.596;5.284;2022-07-29T03:36:43;21.30;1.00
22235;DHT22;11286;45.596;5.284;2022-07-29T03:39:10;21.40;1.00
22235;DHT22;11286;45.596;5.284;2022-07-29T03:41:38;21.40;1.00
22235;DHT22;11286;45.596;5.284;2022-07-29T03:44:05;21.50;1.00
22235;DHT22;11286;45.596;5.284;2022-07-29T03:46:34;21.50;1.00
22235;DHT22;11286;45.596;5.284;2022-07-29T03:49:01;21.50;1.00
22235;DHT22;11286;45.596;5.284;2022-07-29T03:51:28;21.60;1.00
22235;DHT22;11286;45.596;5.284;2022-07-29T03:53:54;21.60;1.00
22235;DHT22;11286;45.596;5.284;2022-07-29T03:56:23;21.50;1.00
22235;DHT22;11286;45.596;5.284;2022-07-29T03:58:50;21.50;1.00
22235;DHT22;11286;45.596;5.284;2022-07-29T04:01:17;21.40;1.00
22235;DHT22;11286;45.596;5.284;2022-07-29T04:03:44;21.50;1.00
22235;DHT22;11286;45.596;5.284;2022-07-29T04:06:11;21.50;1.00
22235;DHT22;11286;45.596;5.284;2022-07-29T04:08:36;21.50;1.00
22235;DHT22;11286;45.596;5.284;2022-07-29T04:11:03;21.40;1.00
22235;DHT22;11286;45.596;5.284;2022-07-29T04:13:29;21.40;1.00
22235;DHT22;11286;45.596;5.284;2022-07-29T04:15:55;21.40;1.00
22235;DHT22;11286;45.596;5.284;2022-07-29T04:18:20;21.30;1.00
22235;DHT22;11286;45.596;5.284;2022-07-29T04:20:46;21.10;1.00
22235;DHT22;11286;45.596;5.284;2022-07-29T04:23:12;21.20;1.00
22235;DHT22;11286;45.596;5.284;2022-07-29T04:25:39;21.20;1.00
22235;DHT22;11286;45.596;5.284;2022-07-29T04:28:05;21.10;1.00
22235;DHT22;11286;45.596;5.284;2022-07-29T04:30:32;21.20;1.00
22235;DHT22;11286;45.596;5.284;2022-07-29T04:32:59;21.20;1.00
22235;DHT22;11286;45.596;5.284;2022-07-29T04:35:26;21.40;1.00
22235;DHT22;11286;45.596;5.284;2022-07-29T04:37:52;21.40;1.00
22235;DHT22;11286;45.596;5.284;2022-07-29T04:40:18;21.60;1.00
22235;DHT22;11286;45.596;5.284;2022-07-29T04:42:43;21.60;1.00
22235;DHT22;11286;45.596;5.284;2022-07-29T04:45:09;21.60;1.00
22235;DHT22;11286;45.596;5.284;2022-07-29T04:47:35;21.70;1.00
22235;DHT22;11286;45.596;5.284;2022-07-29T04:50:00;21.70;1.00
22235;DHT22;11286;45.596;5.284;2022-07-29T04:52:26;21.70;1.00
22235;DHT22;11286;45.596;5.284;2022-07-29T04:54:51;22.00;1.00
22235;DHT22;11286;45.596;5.284;2022-07-29T04:57:17;21.90;1.00
22235;DHT22;11286;45.596;5.284;2022-07-29T04:59:43;21.90;1.00
22235;DHT22;11286;45.596;5.284;2022-07-29T05:02:10;21.80;1.00
22235;DHT22;11286;45.596;5.284;2022-07-29T05:04:35;21.80;1.00
22235;DHT22;11286;45.596;5.284;2022-07-29T05:07:01;21.70;1.00
22235;DHT22;11286;45.596;5.284;2022-07-29T05:09:26;21.70;1.00
22235;DHT22;11286;45.596;5.284;2022-07-29T05:11:52;21.70;1.00
22235;DHT22;11286;45.596;5.284;2022-07-29T05:14:18;21.40;1.00
22235;DHT22;11286;45.596;5.284;2022-07-29T05:16:43;21.40;1.00
22235;DHT22;11286;45.596;5.284;2022-07-29T05:19:09;21.60;1.00
22235;DHT22;11286;45.596;5.284;2022-07-29T05:21:34;21.70;1.00
22235;DHT22;11286;45.596;5.284;2022-07-29T05:24:00;21.60;1.00
22235;DHT22;11286;45.596;5.284;2022-07-29T05:26:26;21.70;1.00
22235;DHT22;11286;45.596;5.284;2022-07-29T05:28:51;21.90;1.00
22235;DHT22;11286;45.596;5.284;2022-07-29T05:31:19;21.80;1.00
22235;DHT22;11286;45.596;5.284;2022-07-29T05:33:44;21.80;1.00
22235;DHT22;11286;45.596;5.284;2022-07-29T05:36:11;21.80;1.00
22235;DHT22;11286;45.596;5.284;2022-07-29T05:38:37;22.00;1.00
22235;DHT22;11286;45.596;5.284;2022-07-29T05:41:04;22.10;1.00
22235;DHT22;11286;45.596;5.284;2022-07-29T05:43:30;22.20;1.00
22235;DHT22;11286;45.596;5.284;2022-07-29T05:45:56;22.30;1.00
22235;DHT22;11286;45.596;5.284;2022-07-29T05:48:21;22.30;1.00
22235;DHT22;11286;45.596;5.284;2022-07-29T05:50:47;22.40;1.00
22235;DHT22;11286;45.596;5.284;2022-07-29T05:53:13;22.40;1.00
22235;DHT22;11286;45.596;5.284;2022-07-29T05:55:38;22.50;1.00
22235;DHT22;11286;45.596;5.284;2022-07-29T05:58:04;22.40;1.00
22235;DHT22;11286;45.596;5.284;2022-07-29T06:00:30;22.40;1.00
22235;DHT22;11286;45.596;5.284;2022-07-29T06:02:56;22.60;1.00
22235;DHT22;11286;45.596;5.284;2022-07-29T06:05:22;22.60;1.00
22235;DHT22;11286;45.596;5.284;2022-07-29T06:07:48;22.60;1.00
22235;DHT22;11286;45.596;5.284;2022-07-29T06:10:13;22.60;1.00
22235;DHT22;11286;45.596;5.284;2022-07-29T06:12:39;22.50;1.00
22235;DHT22;11286;45.596;5.284;2022-07-29T06:15:05;22.60;1.00
22235;DHT22;11286;45.596;5.284;2022-07-29T06:17:31;22.70;1.00
22235;DHT22;11286;45.596;5.284;2022-07-29T06:19:57;22.80;1.00
22235;DHT22;11286;45.596;5.284;2022-07-29T06:22:22;22.70;1.00
22235;DHT22;11286;45.596;5.284;2022-07-29T06:24:49;22.90;1.00
22235;DHT22;11286;45.596;5.284;2022-07-29T06:27:15;22.90;1.00
22235;DHT22;11286;45.596;5.284;2022-07-29T06:29:41;22.90;1.00
22235;DHT22;11286;45.596;5.284;2022-07-29T06:32:07;22.80;1.00
22235;DHT22;11286;45.596;5.284;2022-07-29T06:34:35;22.50;1.00
22235;DHT22;11286;45.596;5.284;2022-07-29T06:37:00;22.30;1.00
22235;DHT22;11286;45.596;5.284;2022-07-29T06:39:28;22.30;1.00
22235;DHT22;11286;45.596;5.284;2022-07-29T06:41:53;22.50;1.00
22235;DHT22;11286;45.596;5.284;2022-07-29T06:44:20;22.40;1.00
22235;DHT22;11286;45.596;5.284;2022-07-29T06:46:45;22.40;1.00
22235;DHT22;11286;45.596;5.284;2022-07-29T06:49:14;22.50;1.00
22235;DHT22;11286;45.596;5.284;2022-07-29T06:51:40;22.50;1.00
22235;DHT22;11286;45.596;5.284;2022-07-29T06:54:05;22.60;1.00
22235;DHT22;11286;45.596;5.284;2022-07-29T06:56:32;22.40;1.00
22235;DHT22;11286;45.596;5.284;2022-07-29T06:58:58;22.10;1.00
22235;DHT22;11286;45.596;5.284;2022-07-29T07:01:24;22.00;1.00
22235;DHT22;11286;45.596;5.284;2022-07-29T07:03:49;22.00;1.00
22235;DHT22;11286;45.596;5.284;2022-07-29T07:06:15;22.00;1.00
22235;DHT22;11286;45.596;5.284;2022-07-29T07:08:41;22.30;1.00
22235;DHT22;11286;45.596;5.284;2022-07-29T07:11:07;22.40;1.00
22235;DHT22;11286;45.596;5.284;2022-07-29T07:13:32;22.50;1.00
22235;DHT22;11286;45.596;5.284;2022-07-29T07:16:03;22.40;1.00
22235;DHT22;11286;45.596;5.284;2022-07-29T07:18:29;22.30;1.00
22235;DHT22;11286;45.596;5.284;2022-07-29T07:20:55;22.10;1.00
22235;DHT22;11286;45.596;5.284;2022-07-29T07:23:21;22.20;1.00
22235;DHT22;11286;45.596;5.284;2022-07-29T07:25:46;22.30;1.00
22235;DHT22;11286;45.596;5.284;2022-07-29T07:28:12;22.50;1.00
22235;DHT22;11286;45.596;5.284;2022-07-29T07:30:38;22.60;1.00
22235;DHT22;11286;45.596;5.284;2022-07-29T07:33:04;22.70;1.00
22235;DHT22;11286;45.596;5.284;2022-07-29T07:35:30;22.90;1.00
22235;DHT22;11286;45.596;5.284;2022-07-29T07:37:56;22.60;1.00
22235;DHT22;11286;45.596;5.284;2022-07-29T07:40:24;22.40;1.00
22235;DHT22;11286;45.596;5.284;2022-07-29T07:42:50;22.00;1.00
22235;DHT22;11286;45.596;5.284;2022-07-29T07:45:15;21.70;1.00
22235;DHT22;11286;45.596;5.284;2022-07-29T07:47:41;21.50;1.00
22235;DHT22;11286;45.596;5.284;2022-07-29T07:50:08;21.50;1.00
22235;DHT22;11286;45.596;5.284;2022-07-29T07:52:34;22.00;1.00
22235;DHT22;11286;45.596;5.284;2022-07-29T07:55:00;22.30;1.00
22235;DHT22;11286;45.596;5.284;2022-07-29T07:57:26;22.20;1.00
22235;DHT22;11286;45.596;5.284;2022-07-29T07:59:52;22.10;1.00
22235;DHT22;11286;45.596;5.284;2022-07-29T08:02:17;22.00;1.00
22235;DHT22;11286;45.596;5.284;2022-07-29T08:04:43;21.80;1.00
22235;DHT22;11286;45.596;5.284;2022-07-29T08:07:09;22.10;1.00
22235;DHT22;11286;45.596;5.284;2022-07-29T08:09:35;22.20;1.00
22235;DHT22;11286;45.596;5.284;2022-07-29T08:12:01;22.20;1.00
22235;DHT22;11286;45.596;5.284;2022-07-29T08:14:31;22.10;1.00
22235;DHT22;11286;45.596;5.284;2022-07-29T08:16:57;22.10;1.00
22235;DHT22;11286;45.596;5.284;2022-07-29T08:19:23;21.90;1.00
22235;DHT22;11286;45.596;5.284;2022-07-29T08:21:48;22.10;1.00
22235;DHT22;11286;45.596;5.284;2022-07-29T08:24:14;22.30;1.00
22235;DHT22;11286;45.596;5.284;2022-07-29T08:26:58;22.40;1.00
22235;DHT22;11286;45.596;5.284;2022-07-29T08:29:24;22.40;1.00
22235;DHT22;11286;45.596;5.284;2022-07-29T08:31:49;22.50;1.00
22235;DHT22;11286;45.596;5.284;2022-07-29T08:34:15;22.70;1.00
22235;DHT22;11286;45.596;5.284;2022-07-29T08:36:41;22.80;1.00
22235;DHT22;11286;45.596;5.284;2022-07-29T08:39:06;23.00;1.00
22235;DHT22;11286;45.596;5.284;2022-07-29T08:41:32;22.80;1.00
22235;DHT22;11286;45.596;5.284;2022-07-29T08:43:58;22.60;1.00
22235;DHT22;11286;45.596;5.284;2022-07-29T08:46:23;22.50;1.00
22235;DHT22;11286;45.596;5.284;2022-07-29T08:48:49;22.30;1.00
22235;DHT22;11286;45.596;5.284;2022-07-29T08:51:17;22.30;1.00
22235;DHT22;11286;45.596;5.284;2022-07-29T08:53:44;22.20;1.00
22235;DHT22;11286;45.596;5.284;2022-07-29T08:56:14;22.20;1.00
22235;DHT22;11286;45.596;5.284;2022-07-29T08:58:42;22.20;1.00
22235;DHT22;11286;45.596;5.284;2022-07-29T09:01:08;22.20;1.00
22235;DHT22;11286;45.596;5.284;2022-07-29T09:03:37;22.20;1.00
22235;DHT22;11286;45.596;5.284;2022-07-29T09:06:04;22.20;1.00
22235;DHT22;11286;45.596;5.284;2022-07-29T09:08:34;22.10;1.00
22235;DHT22;11286;45.596;5.284;2022-07-29T09:11:01;22.20;1.00
22235;DHT22;11286;45.596;5.284;2022-07-29T09:13:28;22.40;1.00
22235;DHT22;11286;45.596;5.284;2022-07-29T09:15:54;22.50;1.00
22235;DHT22;11286;45.596;5.284;2022-07-29T09:18:42;22.30;1.00
22235;DHT22;11286;45.596;5.284;2022-07-29T09:21:10;21.80;1.00
22235;DHT22;11286;45.596;5.284;2022-07-29T09:24:10;21.80;1.00
22235;DHT22;11286;45.596;5.284;2022-07-29T09:26:43;22.00;1.00
22235;DHT22;11286;45.596;5.284;2022-07-29T09:29:14;21.50;1.00
22235;DHT22;11286;45.596;5.284;2022-07-29T09:31:42;21.00;1.00
22235;DHT22;11286;45.596;5.284;2022-07-29T09:34:09;21.20;1.00
22235;DHT22;11286;45.596;5.284;2022-07-29T09:36:46;21.00;1.00
22235;DHT22;11286;45.596;5.284;2022-07-29T09:39:12;20.80;1.00
22235;DHT22;11286;45.596;5.284;2022-07-29T09:41:55;20.90;1.00
22235;DHT22;11286;45.596;5.284;2022-07-29T09:44:22;21.10;1.00
22235;DHT22;11286;45.596;5.284;2022-07-29T09:47:00;21.50;1.00
22235;DHT22;11286;45.596;5.284;2022-07-29T09:49:49;21.60;1.00
22235;DHT22;11286;45.596;5.284;2022-07-29T09:52:15;21.70;1.00
22235;DHT22;11286;45.596;5.284;2022-07-29T09:54:41;21.50;1.00
22235;DHT22;11286;45.596;5.284;2022-07-29T09:57:08;21.50;1.00
22235;DHT22;11286;45.596;5.284;2022-07-29T09:59:38;21.40;1.00
22235;DHT22;11286;45.596;5.284;2022-07-29T10:02:14;21.00;1.00
22235;DHT22;11286;45.596;5.284;2022-07-29T10:04:41;21.30;1.00
22235;DHT22;11286;45.596;5.284;2022-07-29T10:07:08;21.40;1.00
22235;DHT22;11286;45.596;5.284;2022-07-29T10:09:34;21.50;1.00
22235;DHT22;11286;45.596;5.284;2022-07-29T10:14:33;21.50;1.00
22235;DHT22;11286;45.596;5.284;2022-07-29T10:17:02;21.50;1.00
22235;DHT22;11286;45.596;5.284;2022-07-29T10:19:29;21.60;1.00
22235;DHT22;11286;45.596;5.284;2022-07-29T10:21:59;21.70;1.00
22235;DHT22;11286;45.596;5.284;2022-07-29T10:24:27;21.60;1.00
22235;DHT22;11286;45.596;5.284;2022-07-29T10:26:58;21.70;1.00
22235;DHT22;11286;45.596;5.284;2022-07-29T10:29:24;21.90;1.00
22235;DHT22;11286;45.596;5.284;2022-07-29T10:34:46;21.90;1.00
22235;DHT22;11286;45.596;5.284;2022-07-29T10:40:51;21.90;1.00
22235;DHT22;11286;45.596;5.284;2022-07-29T10:43:42;22.10;1.00
22235;DHT22;11286;45.596;5.284;2022-07-29T10:46:09;22.10;1.00
22235;DHT22;11286;45.596;5.284;2022-07-29T10:48:35;22.10;1.00
22235;DHT22;11286;45.596;5.284;2022-07-29T10:51:09;22.20;1.00
22235;DHT22;11286;45.596;5.284;2022-07-29T10:53:49;22.30;1.00
22235;DHT22;11286;45.596;5.284;2022-07-29T10:56:31;22.20;1.00
22235;DHT22;11286;45.596;5.284;2022-07-29T11:01:50;22.60;1.00
22235;DHT22;11286;45.596;5.284;2022-07-29T11:07:11;23.00;1.00
22235;DHT22;11286;45.596;5.284;2022-07-29T11:09:38;23.00;1.00
22235;DHT22;11286;45.596;5.284;2022-07-29T11:15:01;23.30;1.00
22235;DHT22;11286;45.596;5.284;2022-07-29T11:17:28;23.30;1.00
22235;DHT22;11286;45.596;5.284;2022-07-29T11:22:57;23.50;1.00
22235;DHT22;11286;45.596;5.284;2022-07-29T11:25:23;24.20;1.00
22235;DHT22;11286;45.596;5.284;2022-07-29T11:27:49;24.60;1.00
22235;DHT22;11286;45.596;5.284;2022-07-29T11:30:17;25.40;1.00
22235;DHT22;11286;45.596;5.284;2022-07-29T11:32:44;26.10;1.00
22235;DHT22;11286;45.596;5.284;2022-07-29T11:35:19;26.80;1.00
22235;DHT22;11286;45.596;5.284;2022-07-29T11:38:23;26.70;1.00
22235;DHT22;11286;45.596;5.284;2022-07-29T11:40:33;29.80;1.00
22235;DHT22;11286;45.596;5.284;2022-07-29T11:42:58;31.10;1.00
22235;DHT22;11286;45.596;5.284;2022-07-29T11:45:25;31.50;1.00
22235;DHT22;11286;45.596;5.284;2022-07-29T11:47:57;30.00;1.00
22235;DHT22;11286;45.596;5.284;2022-07-29T11:50:35;30.10;1.00
22235;DHT22;11286;45.596;5.284;2022-07-29T11:53:05;29.50;1.00
22235;DHT22;11286;45.596;5.284;2022-07-29T11:55:38;29.90;1.00
22235;DHT22;11286;45.596;5.284;2022-07-29T11:58:04;31.50;1.00
22235;DHT22;11286;45.596;5.284;2022-07-29T12:00:35;33.00;1.00
22235;DHT22;11286;45.596;5.284;2022-07-29T12:03:05;33.20;1.00
22235;DHT22;11286;45.596;5.284;2022-07-29T12:08:22;38.40;1.00
22235;DHT22;11286;45.596;5.284;2022-07-29T12:10:51;36.90;1.00
22235;DHT22;11286;45.596;5.284;2022-07-29T12:13:19;36.60;1.00
22235;DHT22;11286;45.596;5.284;2022-07-29T12:15:57;36.80;1.00
22235;DHT22;11286;45.596;5.284;2022-07-29T12:18:24;36.10;1.00
22235;DHT22;11286;45.596;5.284;2022-07-29T12:20:59;37.40;1.00
22235;DHT22;11286;45.596;5.284;2022-07-29T12:23:29;38.70;1.00
22235;DHT22;11286;45.596;5.284;2022-07-29T12:25:54;36.80;1.00
22235;DHT22;11286;45.596;5.284;2022-07-29T12:28:21;37.40;1.00
22235;DHT22;11286;45.596;5.284;2022-07-29T12:30:48;39.10;1.00
22235;DHT22;11286;45.596;5.284;2022-07-29T12:33:27;38.70;1.00
22235;DHT22;11286;45.596;5.284;2022-07-29T12:35:58;39.30;1.00
22235;DHT22;11286;45.596;5.284;2022-07-29T12:38:24;37.20;1.00
22235;DHT22;11286;45.596;5.284;2022-07-29T12:40:52;36.40;1.00
22235;DHT22;11286;45.596;5.284;2022-07-29T12:43:20;38.50;1.00
22235;DHT22;11286;45.596;5.284;2022-07-29T12:45:55;36.70;1.00
22235;DHT22;11286;45.596;5.284;2022-07-29T12:48:39;37.20;1.00
22235;DHT22;11286;45.596;5.284;2022-07-29T12:51:05;37.00;1.00
22235;DHT22;11286;45.596;5.284;2022-07-29T12:53:33;36.10;1.00
22235;DHT22;11286;45.596;5.284;2022-07-29T12:55:59;36.50;1.00
22235;DHT22;11286;45.596;5.284;2022-07-29T12:58:41;37.30;1.00
22235;DHT22;11286;45.596;5.284;2022-07-29T13:01:10;37.50;1.00
22235;DHT22;11286;45.596;5.284;2022-07-29T13:03:49;37.00;1.00
22235;DHT22;11286;45.596;5.284;2022-07-29T13:09:19;36.20;1.00
22235;DHT22;11286;45.596;5.284;2022-07-29T13:11:49;35.70;1.00
22235;DHT22;11286;45.596;5.284;2022-07-29T13:14:51;35.50;1.00
22235;DHT22;11286;45.596;5.284;2022-07-29T13:17:21;36.60;1.00
22235;DHT22;11286;45.596;5.284;2022-07-29T13:20:04;37.00;1.00
22235;DHT22;11286;45.596;5.284;2022-07-29T13:22:30;36.80;1.00
22235;DHT22;11286;45.596;5.284;2022-07-29T13:24:58;36.10;1.00
22235;DHT22;11286;45.596;5.284;2022-07-29T13:27:26;36.90;1.00
22235;DHT22;11286;45.596;5.284;2022-07-29T13:29:54;36.30;1.00
22235;DHT22;11286;45.596;5.284;2022-07-29T13:32:22;36.90;1.00
22235;DHT22;11286;45.596;5.284;2022-07-29T13:34:48;37.50;1.00
22235;DHT22;11286;45.596;5.284;2022-07-29T13:37:14;37.00;1.00
22235;DHT22;11286;45.596;5.284;2022-07-29T13:39:40;36.40;1.00
22235;DHT22;11286;45.596;5.284;2022-07-29T13:42:06;34.80;1.00
22235;DHT22;11286;45.596;5.284;2022-07-29T13:44:34;35.10;1.00
22235;DHT22;11286;45.596;5.284;2022-07-29T13:47:00;35.60;1.00
22235;DHT22;11286;45.596;5.284;2022-07-29T13:49:26;37.10;1.00
22235;DHT22;11286;45.596;5.284;2022-07-29T13:51:52;35.80;1.00
22235;DHT22;11286;45.596;5.284;2022-07-29T13:54:18;34.90;1.00
22235;DHT22;11286;45.596;5.284;2022-07-29T13:56:43;35.80;1.00
22235;DHT22;11286;45.596;5.284;2022-07-29T13:59:09;35.80;1.00
22235;DHT22;11286;45.596;5.284;2022-07-29T14:01:35;35.80;1.00
22235;DHT22;11286;45.596;5.284;2022-07-29T14:04:01;34.80;1.00
22235;DHT22;11286;45.596;5.284;2022-07-29T14:06:26;35.70;1.00
22235;DHT22;11286;45.596;5.284;2022-07-29T14:08:52;36.80;1.00
22235;DHT22;11286;45.596;5.284;2022-07-29T14:11:18;35.20;1.00
22235;DHT22;11286;45.596;5.284;2022-07-29T14:13:43;35.40;1.00
22235;DHT22;11286;45.596;5.284;2022-07-29T14:16:09;36.30;1.00
22235;DHT22;11286;45.596;5.284;2022-07-29T14:18:35;36.50;1.00
22235;DHT22;11286;45.596;5.284;2022-07-29T14:21:00;35.60;1.00
22235;DHT22;11286;45.596;5.284;2022-07-29T14:23:26;34.70;1.00
22235;DHT22;11286;45.596;5.284;2022-07-29T14:25:52;34.40;1.00
22235;DHT22;11286;45.596;5.284;2022-07-29T14:28:17;35.20;1.00
22235;DHT22;11286;45.596;5.284;2022-07-29T14:30:43;34.10;1.00
22235;DHT22;11286;45.596;5.284;2022-07-29T14:33:08;33.60;1.00
22235;DHT22;11286;45.596;5.284;2022-07-29T14:35:34;34.00;1.00
22235;DHT22;11286;45.596;5.284;2022-07-29T14:38:00;33.90;1.00
22235;DHT22;11286;45.596;5.284;2022-07-29T14:40:25;34.10;1.00
22235;DHT22;11286;45.596;5.284;2022-07-29T14:42:51;34.10;1.00
22235;DHT22;11286;45.596;5.284;2022-07-29T14:45:17;35.40;1.00
22235;DHT22;11286;45.596;5.284;2022-07-29T14:47:43;36.00;1.00
22235;DHT22;11286;45.596;5.284;2022-07-29T14:50:09;36.00;1.00
22235;DHT22;11286;45.596;5.284;2022-07-29T14:52:35;36.20;1.00
22235;DHT22;11286;45.596;5.284;2022-07-29T14:55:02;36.40;1.00
22235;DHT22;11286;45.596;5.284;2022-07-29T14:57:28;35.70;1.00
22235;DHT22;11286;45.596;5.284;2022-07-29T14:59:54;35.90;1.00
22235;DHT22;11286;45.596;5.284;2022-07-29T15:02:19;35.80;1.00
22235;DHT22;11286;45.596;5.284;2022-07-29T15:04:45;35.60;1.00
22235;DHT22;11286;45.596;5.284;2022-07-29T15:07:13;35.80;1.00
22235;DHT22;11286;45.596;5.284;2022-07-29T15:09:39;36.10;1.00
22235;DHT22;11286;45.596;5.284;2022-07-29T15:12:04;36.50;1.00
22235;DHT22;11286;45.596;5.284;2022-07-29T15:14:31;36.30;1.00
22235;DHT22;11286;45.596;5.284;2022-07-29T15:16:57;36.10;1.00
22235;DHT22;11286;45.596;5.284;2022-07-29T15:19:23;34.80;1.00
22235;DHT22;11286;45.596;5.284;2022-07-29T15:21:48;34.40;1.00
22235;DHT22;11286;45.596;5.284;2022-07-29T15:24:15;34.30;1.00
22235;DHT22;11286;45.596;5.284;2022-07-29T15:26:41;34.90;1.00
22235;DHT22;11286;45.596;5.284;2022-07-29T15:29:08;35.00;1.00
22235;DHT22;11286;45.596;5.284;2022-07-29T15:31:33;33.80;1.00
22235;DHT22;11286;45.596;5.284;2022-07-29T15:33:59;33.80;1.00
22235;DHT22;11286;45.596;5.284;2022-07-29T15:36:24;33.40;1.00
22235;DHT22;11286;45.596;5.284;2022-07-29T15:38:54;33.80;1.00
22235;DHT22;11286;45.596;5.284;2022-07-29T15:41:20;33.60;1.00
22235;DHT22;11286;45.596;5.284;2022-07-29T15:43:48;33.40;1.00
22235;DHT22;11286;45.596;5.284;2022-07-29T15:46:15;34.60;1.00
22235;DHT22;11286;45.596;5.284;2022-07-29T15:49:00;34.20;1.00
22235;DHT22;11286;45.596;5.284;2022-07-29T15:51:26;34.10;1.00
22235;DHT22;11286;45.596;5.284;2022-07-29T15:53:52;34.20;1.00
22235;DHT22;11286;45.596;5.284;2022-07-29T15:56:18;33.90;1.00
22235;DHT22;11286;45.596;5.284;2022-07-29T15:58:44;34.10;1.00
22235;DHT22;11286;45.596;5.284;2022-07-29T16:01:09;34.40;1.00
22235;DHT22;11286;45.596;5.284;2022-07-29T16:03:36;34.70;1.00
22235;DHT22;11286;45.596;5.284;2022-07-29T16:06:02;34.60;1.00
22235;DHT22;11286;45.596;5.284;2022-07-29T16:08:27;34.50;1.00
22235;DHT22;11286;45.596;5.284;2022-07-29T16:10:53;33.90;1.00
22235;DHT22;11286;45.596;5.284;2022-07-29T16:13:19;32.80;1.00
22235;DHT22;11286;45.596;5.284;2022-07-29T16:15:44;32.10;1.00
22235;DHT22;11286;45.596;5.284;2022-07-29T16:18:10;31.90;1.00
22235;DHT22;11286;45.596;5.284;2022-07-29T16:20:36;31.90;1.00
22235;DHT22;11286;45.596;5.284;2022-07-29T16:23:02;31.60;1.00
22235;DHT22;11286;45.596;5.284;2022-07-29T16:25:28;31.80;1.00